sensor_id;sensor_type;location;lat;lon;timestamp;P1;durP1;ratioP1;P2;durP2;ratioP2
21030;SDS011;61072;47.808;7.636;2023-08-06T00:00:54;2.65;;;1.20;;
21030;SDS011;61072;47.808;7.636;2023-08-06T00:03:22;6.70;;;1.30;;
21030;SDS011;61072;47.808;7.636;2023-08-06T00:05:48;5.97;;;1.30;;
21030;SDS011;61072;47.808;7.636;2023-08-06T00:08:15;3.95;;;1.25;;
21030;SDS011;61072;47.808;7.636;2023-08-06T00:10:42;4.43;;;1.40;;
21030;SDS011;61072;47.808;7.636;2023-08-06T00:13:09;1.77;;;1.05;;
21030;SDS011;61072;47.808;7.636;2023-08-06T00:15:35;4.03;;;2.05;;
21030;SDS011;61072;47.808;7.636;2023-08-06T00:18:02;2.42;;;1.25;;
21030;SDS011;61072;47.808;7.636;2023-08-06T00:20:29;2.20;;;1.20;;
21030;SDS011;61072;47.808;7.636;2023-08-06T00:22:56;1.27;;;1.00;;
21030;SDS011;61072;47.808;7.636;2023-08-06T00:25:23;3.45;;;1.23;;
21030;SDS011;61072;47.808;7.636;2023-08-06T00:27:49;2.50;;;1.80;;
21030;SDS011;61072;47.808;7.636;2023-08-06T00:30:16;1.77;;;1.15;;
21030;SDS011;61072;47.808;7.636;2023-08-06T00:32:43;1.55;;;1.20;;
21030;SDS011;61072;47.808;7.636;2023-08-06T00:35:11;3.55;;;1.50;;
21030;SDS011;61072;47.808;7.636;2023-08-06T00:37:39;2.28;;;1.55;;
21030;SDS011;61072;47.808;7.636;2023-08-06T00:40:06;2.22;;;1.40;;
21030;SDS011;61072;47.808;7.636;2023-08-06T00:42:34;1.90;;;1.05;;
21030;SDS011;61072;47.808;7.636;2023-08-06T00:45:01;3.20;;;1.20;;
21030;SDS011;61072;47.808;7.636;2023-08-06T00:47:29;4.63;;;1.50;;
21030;SDS011;61072;47.808;7.636;2023-08-06T00:49:55;3.20;;;1.52;;
21030;SDS011;61072;47.808;7.636;2023-08-06T00:52:22;3.97;;;1.27;;
21030;SDS011;61072;47.808;7.636;2023-08-06T00:54:49;2.63;;;1.13;;
21030;SDS011;61072;47.808;7.636;2023-08-06T00:57:16;5.07;;;1.55;;
21030;SDS011;61072;47.808;7.636;2023-08-06T00:59:43;1.52;;;1.05;;
21030;SDS011;61072;47.808;7.636;2023-08-06T01:02:11;3.03;;;1.35;;
21030;SDS011;61072;47.808;7.636;2023-08-06T01:04:38;2.17;;;1.20;;
21030;SDS011;61072;47.808;7.636;2023-08-06T01:07:19;4.00;;;1.30;;
21030;SDS011;61072;47.808;7.636;2023-08-06T01:12:52;2.95;;;2.15;;
21030;SDS011;61072;47.808;7.636;2023-08-06T01:15:29;3.03;;;1.00;;
21030;SDS011;61072;47.808;7.636;2023-08-06T01:18:01;3.08;;;0.98;;
21030;SDS011;61072;47.808;7.636;2023-08-06T01:20:29;3.13;;;1.15;;
21030;SDS011;61072;47.808;7.636;2023-08-06T01:22:56;2.15;;;1.10;;
21030;SDS011;61072;47.808;7.636;2023-08-06T01:25:26;2.53;;;1.00;;
21030;SDS011;61072;47.808;7.636;2023-08-06T01:28:03;2.60;;;1.20;;
21030;SDS011;61072;47.808;7.636;2023-08-06T01:30:36;1.40;;;0.90;;
21030;SDS011;61072;47.808;7.636;2023-08-06T01:33:07;2.72;;;1.30;;
21030;SDS011;61072;47.808;7.636;2023-08-06T01:35:39;1.42;;;1.08;;
21030;SDS011;61072;47.808;7.636;2023-08-06T01:38:06;2.85;;;0.93;;
21030;SDS011;61072;47.808;7.636;2023-08-06T01:40:34;2.75;;;1.23;;
21030;SDS011;61072;47.808;7.636;2023-08-06T01:43:01;1.83;;;0.82;;
21030;SDS011;61072;47.808;7.636;2023-08-06T01:45:28;4.53;;;1.23;;
21030;SDS011;61072;47.808;7.636;2023-08-06T01:47:54;3.33;;;0.88;;
21030;SDS011;61072;47.808;7.636;2023-08-06T01:50:21;2.60;;;1.10;;
21030;SDS011;61072;47.808;7.636;2023-08-06T01:52:48;2.65;;;1.20;;
21030;SDS011;61072;47.808;7.636;2023-08-06T01:55:14;4.10;;;1.20;;
21030;SDS011;61072;47.808;7.636;2023-08-06T01:57:41;2.47;;;1.20;;
21030;SDS011;61072;47.808;7.636;2023-08-06T02:00:08;1.83;;;0.90;;
21030;SDS011;61072;47.808;7.636;2023-08-06T02:02:35;1.92;;;0.98;;
21030;SDS011;61072;47.808;7.636;2023-08-06T02:05:02;1.73;;;1.00;;
21030;SDS011;61072;47.808;7.636;2023-08-06T02:07:29;3.50;;;1.15;;
21030;SDS011;61072;47.808;7.636;2023-08-06T02:09:56;2.83;;;1.05;;
21030;SDS011;61072;47.808;7.636;2023-08-06T02:12:23;3.17;;;1.38;;
21030;SDS011;61072;47.808;7.636;2023-08-06T02:14:49;2.88;;;1.00;;
21030;SDS011;61072;47.808;7.636;2023-08-06T02:17:16;3.38;;;1.20;;
21030;SDS011;61072;47.808;7.636;2023-08-06T02:19:43;5.40;;;0.93;;
21030;SDS011;61072;47.808;7.636;2023-08-06T02:22:09;4.63;;;1.15;;
21030;SDS011;61072;47.808;7.636;2023-08-06T02:24:36;6.03;;;1.30;;
21030;SDS011;61072;47.808;7.636;2023-08-06T02:27:03;4.75;;;0.80;;
21030;SDS011;61072;47.808;7.636;2023-08-06T02:29:30;2.47;;;0.70;;
21030;SDS011;61072;47.808;7.636;2023-08-06T02:31:56;2.70;;;0.45;;
21030;SDS011;61072;47.808;7.636;2023-08-06T02:34:24;2.72;;;0.40;;
21030;SDS011;61072;47.808;7.636;2023-08-06T02:36:51;4.38;;;0.60;;
21030;SDS011;61072;47.808;7.636;2023-08-06T02:39:18;4.32;;;0.47;;
21030;SDS011;61072;47.808;7.636;2023-08-06T02:41:45;2.33;;;0.60;;
21030;SDS011;61072;47.808;7.636;2023-08-06T02:44:12;2.10;;;0.70;;
21030;SDS011;61072;47.808;7.636;2023-08-06T02:46:38;7.13;;;0.47;;
21030;SDS011;61072;47.808;7.636;2023-08-06T02:49:06;1.50;;;0.50;;
21030;SDS011;61072;47.808;7.636;2023-08-06T02:51:32;3.05;;;0.50;;
21030;SDS011;61072;47.808;7.636;2023-08-06T02:53:59;6.47;;;0.75;;
21030;SDS011;61072;47.808;7.636;2023-08-06T02:56:26;2.42;;;0.60;;
21030;SDS011;61072;47.808;7.636;2023-08-06T02:58:52;2.78;;;0.70;;
21030;SDS011;61072;47.808;7.636;2023-08-06T03:01:19;0.88;;;0.47;;
21030;SDS011;61072;47.808;7.636;2023-08-06T03:03:46;0.55;;;0.40;;
21030;SDS011;61072;47.808;7.636;2023-08-06T03:06:13;1.80;;;0.52;;
21030;SDS011;61072;47.808;7.636;2023-08-06T03:08:39;0.73;;;0.43;;
21030;SDS011;61072;47.808;7.636;2023-08-06T03:11:06;2.25;;;0.70;;
21030;SDS011;61072;47.808;7.636;2023-08-06T03:13:33;4.40;;;0.95;;
21030;SDS011;61072;47.808;7.636;2023-08-06T03:15:59;1.58;;;0.52;;
21030;SDS011;61072;47.808;7.636;2023-08-06T03:18:27;1.13;;;0.60;;
21030;SDS011;61072;47.808;7.636;2023-08-06T03:20:54;5.63;;;0.50;;
21030;SDS011;61072;47.808;7.636;2023-08-06T03:23:20;2.15;;;0.38;;
21030;SDS011;61072;47.808;7.636;2023-08-06T03:25:47;2.22;;;0.60;;
21030;SDS011;61072;47.808;7.636;2023-08-06T03:28:14;2.85;;;0.75;;
21030;SDS011;61072;47.808;7.636;2023-08-06T03:30:41;2.85;;;0.60;;
21030;SDS011;61072;47.808;7.636;2023-08-06T03:33:08;3.92;;;0.93;;
21030;SDS011;61072;47.808;7.636;2023-08-06T03:35:34;4.78;;;0.70;;
21030;SDS011;61072;47.808;7.636;2023-08-06T03:38:01;2.28;;;0.52;;
21030;SDS011;61072;47.808;7.636;2023-08-06T03:40:28;4.93;;;0.80;;
21030;SDS011;61072;47.808;7.636;2023-08-06T03:42:55;5.80;;;1.33;;
21030;SDS011;61072;47.808;7.636;2023-08-06T03:45:21;5.75;;;0.90;;
21030;SDS011;61072;47.808;7.636;2023-08-06T03:47:48;2.53;;;1.00;;
21030;SDS011;61072;47.808;7.636;2023-08-06T03:50:15;5.53;;;1.33;;
21030;SDS011;61072;47.808;7.636;2023-08-06T03:52:42;3.67;;;0.98;;
21030;SDS011;61072;47.808;7.636;2023-08-06T03:55:09;4.68;;;1.33;;
21030;SDS011;61072;47.808;7.636;2023-08-06T03:57:35;6.28;;;1.10;;
21030;SDS011;61072;47.808;7.636;2023-08-06T04:00:02;4.45;;;1.27;;
21030;SDS011;61072;47.808;7.636;2023-08-06T04:02:30;8.38;;;1.88;;
21030;SDS011;61072;47.808;7.636;2023-08-06T04:04:56;4.13;;;1.00;;
21030;SDS011;61072;47.808;7.636;2023-08-06T04:07:25;4.63;;;1.00;;
21030;SDS011;61072;47.808;7.636;2023-08-06T04:09:52;9.30;;;1.20;;
21030;SDS011;61072;47.808;7.636;2023-08-06T04:12:27;4.15;;;1.42;;
21030;SDS011;61072;47.808;7.636;2023-08-06T04:14:54;8.27;;;1.15;;
21030;SDS011;61072;47.808;7.636;2023-08-06T04:17:21;7.60;;;1.30;;
21030;SDS011;61072;47.808;7.636;2023-08-06T04:19:53;6.10;;;1.10;;
21030;SDS011;61072;47.808;7.636;2023-08-06T04:22:20;5.25;;;1.20;;
21030;SDS011;61072;47.808;7.636;2023-08-06T04:24:48;9.90;;;1.33;;
21030;SDS011;61072;47.808;7.636;2023-08-06T04:27:14;8.98;;;1.40;;
21030;SDS011;61072;47.808;7.636;2023-08-06T04:29:42;8.90;;;1.48;;
21030;SDS011;61072;47.808;7.636;2023-08-06T04:32:09;8.95;;;1.52;;
21030;SDS011;61072;47.808;7.636;2023-08-06T04:34:36;6.43;;;1.15;;
21030;SDS011;61072;47.808;7.636;2023-08-06T04:37:04;6.63;;;1.30;;
21030;SDS011;61072;47.808;7.636;2023-08-06T04:39:31;9.05;;;1.27;;
21030;SDS011;61072;47.808;7.636;2023-08-06T04:41:58;4.80;;;1.58;;
21030;SDS011;61072;47.808;7.636;2023-08-06T04:44:24;8.25;;;1.50;;
21030;SDS011;61072;47.808;7.636;2023-08-06T04:46:51;6.78;;;1.35;;
21030;SDS011;61072;47.808;7.636;2023-08-06T04:49:19;3.05;;;1.33;;
21030;SDS011;61072;47.808;7.636;2023-08-06T04:51:47;7.20;;;1.73;;
21030;SDS011;61072;47.808;7.636;2023-08-06T04:54:13;9.35;;;1.10;;
21030;SDS011;61072;47.808;7.636;2023-08-06T04:56:40;7.93;;;1.33;;
21030;SDS011;61072;47.808;7.636;2023-08-06T04:59:07;4.70;;;1.10;;
21030;SDS011;61072;47.808;7.636;2023-08-06T05:01:34;8.38;;;1.52;;
21030;SDS011;61072;47.808;7.636;2023-08-06T05:04:00;10.20;;;1.65;;
21030;SDS011;61072;47.808;7.636;2023-08-06T05:06:27;6.30;;;1.30;;
21030;SDS011;61072;47.808;7.636;2023-08-06T05:08:54;6.55;;;1.20;;
21030;SDS011;61072;47.808;7.636;2023-08-06T05:11:21;7.75;;;1.40;;
21030;SDS011;61072;47.808;7.636;2023-08-06T05:13:47;8.40;;;1.40;;
21030;SDS011;61072;47.808;7.636;2023-08-06T05:16:14;8.48;;;1.38;;
21030;SDS011;61072;47.808;7.636;2023-08-06T05:18:41;6.20;;;1.23;;
21030;SDS011;61072;47.808;7.636;2023-08-06T05:21:08;6.07;;;1.52;;
21030;SDS011;61072;47.808;7.636;2023-08-06T05:23:34;8.23;;;1.45;;
21030;SDS011;61072;47.808;7.636;2023-08-06T05:26:01;7.93;;;1.63;;
21030;SDS011;61072;47.808;7.636;2023-08-06T05:28:28;3.30;;;1.17;;
21030;SDS011;61072;47.808;7.636;2023-08-06T05:30:55;17.60;;;3.15;;
21030;SDS011;61072;47.808;7.636;2023-08-06T05:33:22;7.90;;;1.13;;
21030;SDS011;61072;47.808;7.636;2023-08-06T05:35:49;4.80;;;1.20;;
21030;SDS011;61072;47.808;7.636;2023-08-06T05:38:16;6.07;;;1.58;;
21030;SDS011;61072;47.808;7.636;2023-08-06T05:40:43;4.93;;;1.17;;
21030;SDS011;61072;47.808;7.636;2023-08-06T05:43:10;9.05;;;1.33;;
21030;SDS011;61072;47.808;7.636;2023-08-06T05:45:37;9.82;;;1.20;;
21030;SDS011;61072;47.808;7.636;2023-08-06T05:48:04;4.55;;;0.93;;
21030;SDS011;61072;47.808;7.636;2023-08-06T05:50:31;6.10;;;1.60;;
21030;SDS011;61072;47.808;7.636;2023-08-06T05:52:57;3.90;;;1.40;;
21030;SDS011;61072;47.808;7.636;2023-08-06T05:55:27;8.43;;;1.07;;
21030;SDS011;61072;47.808;7.636;2023-08-06T05:57:54;9.88;;;1.77;;
21030;SDS011;61072;47.808;7.636;2023-08-06T06:00:21;7.88;;;1.08;;
21030;SDS011;61072;47.808;7.636;2023-08-06T06:02:48;7.43;;;1.35;;
21030;SDS011;61072;47.808;7.636;2023-08-06T06:05:15;5.22;;;0.80;;
21030;SDS011;61072;47.808;7.636;2023-08-06T06:07:42;4.07;;;1.40;;
21030;SDS011;61072;47.808;7.636;2023-08-06T06:10:09;6.10;;;0.82;;
21030;SDS011;61072;47.808;7.636;2023-08-06T06:12:37;3.90;;;1.00;;
21030;SDS011;61072;47.808;7.636;2023-08-06T06:15:04;5.25;;;0.90;;
21030;SDS011;61072;47.808;7.636;2023-08-06T06:17:32;3.63;;;0.77;;
21030;SDS011;61072;47.808;7.636;2023-08-06T06:19:59;2.58;;;0.70;;
21030;SDS011;61072;47.808;7.636;2023-08-06T06:22:26;4.03;;;1.23;;
21030;SDS011;61072;47.808;7.636;2023-08-06T06:24:53;3.05;;;0.75;;
21030;SDS011;61072;47.808;7.636;2023-08-06T06:27:19;2.55;;;0.60;;
21030;SDS011;61072;47.808;7.636;2023-08-06T06:29:46;5.60;;;1.00;;
21030;SDS011;61072;47.808;7.636;2023-08-06T06:32:13;3.50;;;0.88;;
21030;SDS011;61072;47.808;7.636;2023-08-06T06:34:40;2.28;;;0.60;;
21030;SDS011;61072;47.808;7.636;2023-08-06T06:37:06;5.68;;;1.10;;
21030;SDS011;61072;47.808;7.636;2023-08-06T06:39:33;6.00;;;0.73;;
21030;SDS011;61072;47.808;7.636;2023-08-06T06:42:00;4.43;;;1.05;;
21030;SDS011;61072;47.808;7.636;2023-08-06T06:44:26;5.53;;;0.93;;
21030;SDS011;61072;47.808;7.636;2023-08-06T06:46:53;3.13;;;0.75;;
21030;SDS011;61072;47.808;7.636;2023-08-06T06:49:20;2.17;;;0.50;;
21030;SDS011;61072;47.808;7.636;2023-08-06T06:51:47;2.13;;;0.63;;
21030;SDS011;61072;47.808;7.636;2023-08-06T06:54:13;4.32;;;0.80;;
21030;SDS011;61072;47.808;7.636;2023-08-06T06:56:41;2.63;;;0.40;;
21030;SDS011;61072;47.808;7.636;2023-08-06T06:59:08;1.33;;;0.55;;
21030;SDS011;61072;47.808;7.636;2023-08-06T07:01:34;2.33;;;0.60;;
21030;SDS011;61072;47.808;7.636;2023-08-06T07:04:01;1.52;;;0.52;;
21030;SDS011;61072;47.808;7.636;2023-08-06T07:06:31;2.05;;;0.50;;
21030;SDS011;61072;47.808;7.636;2023-08-06T07:08:58;1.60;;;0.40;;
21030;SDS011;61072;47.808;7.636;2023-08-06T07:11:25;1.48;;;0.50;;
21030;SDS011;61072;47.808;7.636;2023-08-06T07:13:56;1.63;;;0.30;;
21030;SDS011;61072;47.808;7.636;2023-08-06T07:16:24;2.22;;;0.50;;
21030;SDS011;61072;47.808;7.636;2023-08-06T07:18:52;0.90;;;0.50;;
21030;SDS011;61072;47.808;7.636;2023-08-06T07:21:20;5.80;;;0.40;;
21030;SDS011;61072;47.808;7.636;2023-08-06T07:23:47;0.45;;;0.30;;
21030;SDS011;61072;47.808;7.636;2023-08-06T07:26:16;2.05;;;0.60;;
21030;SDS011;61072;47.808;7.636;2023-08-06T07:28:43;3.03;;;0.30;;
21030;SDS011;61072;47.808;7.636;2023-08-06T07:31:11;1.25;;;0.32;;
21030;SDS011;61072;47.808;7.636;2023-08-06T07:33:38;0.88;;;0.30;;
21030;SDS011;61072;47.808;7.636;2023-08-06T07:36:11;0.40;;;0.30;;
21030;SDS011;61072;47.808;7.636;2023-08-06T07:38:39;0.40;;;0.20;;
21030;SDS011;61072;47.808;7.636;2023-08-06T07:41:06;0.60;;;0.30;;
21030;SDS011;61072;47.808;7.636;2023-08-06T07:43:33;1.38;;;0.38;;
21030;SDS011;61072;47.808;7.636;2023-08-06T07:46:01;0.40;;;0.20;;
21030;SDS011;61072;47.808;7.636;2023-08-06T07:48:29;0.20;;;0.20;;
21030;SDS011;61072;47.808;7.636;2023-08-06T07:50:55;1.40;;;0.40;;
21030;SDS011;61072;47.808;7.636;2023-08-06T07:53:23;0.68;;;0.35;;
21030;SDS011;61072;47.808;7.636;2023-08-06T07:55:53;0.85;;;0.20;;
21030;SDS011;61072;47.808;7.636;2023-08-06T07:58:20;0.88;;;0.20;;
21030;SDS011;61072;47.808;7.636;2023-08-06T08:00:47;0.38;;;0.30;;
21030;SDS011;61072;47.808;7.636;2023-08-06T08:03:15;0.98;;;0.20;;
21030;SDS011;61072;47.808;7.636;2023-08-06T08:05:42;0.82;;;0.25;;
21030;SDS011;61072;47.808;7.636;2023-08-06T08:08:10;0.40;;;0.20;;
21030;SDS011;61072;47.808;7.636;2023-08-06T08:10:37;0.75;;;0.20;;
21030;SDS011;61072;47.808;7.636;2023-08-06T08:13:05;0.68;;;0.30;;
21030;SDS011;61072;47.808;7.636;2023-08-06T08:15:32;1.38;;;0.30;;
21030;SDS011;61072;47.808;7.636;2023-08-06T08:17:59;1.23;;;0.43;;
21030;SDS011;61072;47.808;7.636;2023-08-06T08:20:26;0.77;;;0.30;;
21030;SDS011;61072;47.808;7.636;2023-08-06T08:23:01;1.00;;;0.50;;
21030;SDS011;61072;47.808;7.636;2023-08-06T08:25:28;1.00;;;0.30;;
21030;SDS011;61072;47.808;7.636;2023-08-06T08:27:56;1.67;;;0.30;;
21030;SDS011;61072;47.808;7.636;2023-08-06T08:30:23;1.80;;;0.28;;
21030;SDS011;61072;47.808;7.636;2023-08-06T08:32:51;2.72;;;0.70;;
21030;SDS011;61072;47.808;7.636;2023-08-06T08:35:18;0.80;;;0.40;;
21030;SDS011;61072;47.808;7.636;2023-08-06T08:37:45;4.93;;;0.40;;
21030;SDS011;61072;47.808;7.636;2023-08-06T08:40:13;1.13;;;0.30;;
21030;SDS011;61072;47.808;7.636;2023-08-06T08:42:41;0.45;;;0.30;;
21030;SDS011;61072;47.808;7.636;2023-08-06T08:45:12;0.43;;;0.20;;
21030;SDS011;61072;47.808;7.636;2023-08-06T08:47:40;0.55;;;0.30;;
21030;SDS011;61072;47.808;7.636;2023-08-06T08:50:09;1.15;;;0.30;;
21030;SDS011;61072;47.808;7.636;2023-08-06T08:52:40;2.40;;;0.35;;
21030;SDS011;61072;47.808;7.636;2023-08-06T08:55:08;0.20;;;0.20;;
21030;SDS011;61072;47.808;7.636;2023-08-06T08:57:35;0.40;;;0.30;;
21030;SDS011;61072;47.808;7.636;2023-08-06T09:00:02;0.30;;;0.20;;
21030;SDS011;61072;47.808;7.636;2023-08-06T09:02:29;0.20;;;0.20;;
21030;SDS011;61072;47.808;7.636;2023-08-06T09:04:58;0.20;;;0.20;;
21030;SDS011;61072;47.808;7.636;2023-08-06T09:07:29;0.22;;;0.20;;
21030;SDS011;61072;47.808;7.636;2023-08-06T09:10:02;1.25;;;0.50;;
21030;SDS011;61072;47.808;7.636;2023-08-06T09:12:32;0.52;;;0.22;;
21030;SDS011;61072;47.808;7.636;2023-08-06T09:14:59;1.17;;;0.22;;
21030;SDS011;61072;47.808;7.636;2023-08-06T09:17:25;1.00;;;0.30;;
21030;SDS011;61072;47.808;7.636;2023-08-06T09:19:54;0.47;;;0.28;;
21030;SDS011;61072;47.808;7.636;2023-08-06T09:22:21;1.25;;;0.28;;
21030;SDS011;61072;47.808;7.636;2023-08-06T09:24:47;0.20;;;0.20;;
21030;SDS011;61072;47.808;7.636;2023-08-06T09:27:14;0.70;;;0.20;;
21030;SDS011;61072;47.808;7.636;2023-08-06T09:29:45;0.40;;;0.30;;
21030;SDS011;61072;47.808;7.636;2023-08-06T09:32:12;0.98;;;0.30;;
21030;SDS011;61072;47.808;7.636;2023-08-06T09:34:41;2.22;;;0.30;;
21030;SDS011;61072;47.808;7.636;2023-08-06T09:37:09;0.40;;;0.40;;
21030;SDS011;61072;47.808;7.636;2023-08-06T09:42:09;0.88;;;0.22;;
21030;SDS011;61072;47.808;7.636;2023-08-06T09:44:35;0.20;;;0.20;;
21030;SDS011;61072;47.808;7.636;2023-08-06T09:47:03;0.20;;;0.20;;
21030;SDS011;61072;47.808;7.636;2023-08-06T09:51:59;1.25;;;0.65;;
21030;SDS011;61072;47.808;7.636;2023-08-06T09:54:27;0.45;;;0.25;;
21030;SDS011;61072;47.808;7.636;2023-08-06T09:56:56;0.90;;;0.30;;
21030;SDS011;61072;47.808;7.636;2023-08-06T09:59:23;0.63;;;0.35;;
21030;SDS011;61072;47.808;7.636;2023-08-06T10:01:50;1.80;;;0.20;;
21030;SDS011;61072;47.808;7.636;2023-08-06T10:04:19;1.98;;;0.30;;
21030;SDS011;61072;47.808;7.636;2023-08-06T10:06:50;0.30;;;0.20;;
21030;SDS011;61072;47.808;7.636;2023-08-06T10:09:18;0.43;;;0.38;;
21030;SDS011;61072;47.808;7.636;2023-08-06T10:11:50;1.05;;;0.40;;
21030;SDS011;61072;47.808;7.636;2023-08-06T10:14:21;1.38;;;0.73;;
21030;SDS011;61072;47.808;7.636;2023-08-06T10:16:52;1.08;;;0.30;;
21030;SDS011;61072;47.808;7.636;2023-08-06T10:19:23;1.20;;;0.40;;
21030;SDS011;61072;47.808;7.636;2023-08-06T10:24:56;1.95;;;0.30;;
21030;SDS011;61072;47.808;7.636;2023-08-06T10:27:31;1.88;;;0.38;;
21030;SDS011;61072;47.808;7.636;2023-08-06T10:30:24;0.40;;;0.38;;
21030;SDS011;61072;47.808;7.636;2023-08-06T10:32:53;0.57;;;0.38;;
21030;SDS011;61072;47.808;7.636;2023-08-06T10:35:36;0.93;;;0.28;;
21030;SDS011;61072;47.808;7.636;2023-08-06T10:38:20;0.63;;;0.30;;
21030;SDS011;61072;47.808;7.636;2023-08-06T10:45:53;0.63;;;0.20;;
21030;SDS011;61072;47.808;7.636;2023-08-06T10:48:37;1.17;;;0.20;;
21030;SDS011;61072;47.808;7.636;2023-08-06T10:51:11;0.45;;;0.40;;
21030;SDS011;61072;47.808;7.636;2023-08-06T10:53:46;0.45;;;0.28;;
21030;SDS011;61072;47.808;7.636;2023-08-06T10:56:15;0.38;;;0.20;;
21030;SDS011;61072;47.808;7.636;2023-08-06T10:58:42;0.73;;;0.45;;
21030;SDS011;61072;47.808;7.636;2023-08-06T11:01:10;0.40;;;0.20;;
21030;SDS011;61072;47.808;7.636;2023-08-06T11:03:38;0.20;;;0.13;;
21030;SDS011;61072;47.808;7.636;2023-08-06T11:06:08;0.40;;;0.28;;
21030;SDS011;61072;47.808;7.636;2023-08-06T11:08:40;0.22;;;0.20;;
21030;SDS011;61072;47.808;7.636;2023-08-06T11:11:14;0.80;;;0.30;;
21030;SDS011;61072;47.808;7.636;2023-08-06T11:13:48;0.20;;;0.20;;
21030;SDS011;61072;47.808;7.636;2023-08-06T11:16:17;0.38;;;0.22;;
21030;SDS011;61072;47.808;7.636;2023-08-06T11:18:53;0.95;;;0.28;;
21030;SDS011;61072;47.808;7.636;2023-08-06T11:21:21;0.30;;;0.30;;
21030;SDS011;61072;47.808;7.636;2023-08-06T11:23:48;0.30;;;0.30;;
21030;SDS011;61072;47.808;7.636;2023-08-06T11:26:18;0.28;;;0.28;;
21030;SDS011;61072;47.808;7.636;2023-08-06T11:28:46;0.45;;;0.20;;
21030;SDS011;61072;47.808;7.636;2023-08-06T11:31:22;0.57;;;0.30;;
21030;SDS011;61072;47.808;7.636;2023-08-06T11:33:53;0.28;;;0.28;;
21030;SDS011;61072;47.808;7.636;2023-08-06T11:36:30;0.30;;;0.30;;
21030;SDS011;61072;47.808;7.636;2023-08-06T11:38:58;0.40;;;0.30;;
21030;SDS011;61072;47.808;7.636;2023-08-06T11:41:29;0.47;;;0.30;;
21030;SDS011;61072;47.808;7.636;2023-08-06T11:46:24;0.43;;;0.40;;
21030;SDS011;61072;47.808;7.636;2023-08-06T11:51:18;0.73;;;0.57;;
21030;SDS011;61072;47.808;7.636;2023-08-06T11:53:48;0.85;;;0.50;;
21030;SDS011;61072;47.808;7.636;2023-08-06T11:56:16;1.45;;;0.63;;
21030;SDS011;61072;47.808;7.636;2023-08-06T11:58:43;0.75;;;0.50;;
21030;SDS011;61072;47.808;7.636;2023-08-06T12:01:09;1.58;;;0.50;;
21030;SDS011;61072;47.808;7.636;2023-08-06T12:03:40;1.08;;;0.40;;
21030;SDS011;61072;47.808;7.636;2023-08-06T12:06:07;2.15;;;0.38;;
21030;SDS011;61072;47.808;7.636;2023-08-06T12:08:33;0.80;;;0.45;;
21030;SDS011;61072;47.808;7.636;2023-08-06T12:11:00;0.60;;;0.47;;
21030;SDS011;61072;47.808;7.636;2023-08-06T12:13:27;0.75;;;0.60;;
21030;SDS011;61072;47.808;7.636;2023-08-06T12:15:54;0.47;;;0.40;;
21030;SDS011;61072;47.808;7.636;2023-08-06T12:18:20;0.88;;;0.45;;
21030;SDS011;61072;47.808;7.636;2023-08-06T12:20:48;1.23;;;0.47;;
21030;SDS011;61072;47.808;7.636;2023-08-06T12:23:15;0.65;;;0.52;;
21030;SDS011;61072;47.808;7.636;2023-08-06T12:25:42;0.80;;;0.60;;
21030;SDS011;61072;47.808;7.636;2023-08-06T12:28:10;1.55;;;0.50;;
21030;SDS011;61072;47.808;7.636;2023-08-06T12:30:38;2.15;;;0.57;;
21030;SDS011;61072;47.808;7.636;2023-08-06T12:35:35;0.60;;;0.50;;
21030;SDS011;61072;47.808;7.636;2023-08-06T12:38:04;1.23;;;0.60;;
21030;SDS011;61072;47.808;7.636;2023-08-06T12:40:31;0.60;;;0.60;;
21030;SDS011;61072;47.808;7.636;2023-08-06T12:43:03;1.27;;;0.43;;
21030;SDS011;61072;47.808;7.636;2023-08-06T12:45:30;0.50;;;0.50;;
21030;SDS011;61072;47.808;7.636;2023-08-06T12:47:57;0.60;;;0.60;;
21030;SDS011;61072;47.808;7.636;2023-08-06T12:50:24;0.82;;;0.63;;
21030;SDS011;61072;47.808;7.636;2023-08-06T12:52:51;0.85;;;0.60;;
21030;SDS011;61072;47.808;7.636;2023-08-06T12:55:17;0.63;;;0.40;;
21030;SDS011;61072;47.808;7.636;2023-08-06T12:57:44;0.60;;;0.40;;
21030;SDS011;61072;47.808;7.636;2023-08-06T13:00:23;0.60;;;0.30;;
21030;SDS011;61072;47.808;7.636;2023-08-06T13:02:49;0.85;;;0.57;;
21030;SDS011;61072;47.808;7.636;2023-08-06T13:05:16;1.65;;;0.40;;
21030;SDS011;61072;47.808;7.636;2023-08-06T13:07:43;0.65;;;0.40;;
21030;SDS011;61072;47.808;7.636;2023-08-06T13:10:10;0.77;;;0.40;;
21030;SDS011;61072;47.808;7.636;2023-08-06T13:12:37;2.25;;;0.85;;
21030;SDS011;61072;47.808;7.636;2023-08-06T13:15:04;0.30;;;0.30;;
21030;SDS011;61072;47.808;7.636;2023-08-06T13:17:31;1.35;;;0.70;;
21030;SDS011;61072;47.808;7.636;2023-08-06T13:19:58;0.60;;;0.47;;
21030;SDS011;61072;47.808;7.636;2023-08-06T13:22:24;0.93;;;0.50;;
21030;SDS011;61072;47.808;7.636;2023-08-06T13:24:51;1.85;;;0.50;;
21030;SDS011;61072;47.808;7.636;2023-08-06T13:27:18;1.13;;;0.40;;
21030;SDS011;61072;47.808;7.636;2023-08-06T13:29:44;1.25;;;0.50;;
21030;SDS011;61072;47.808;7.636;2023-08-06T13:32:11;1.88;;;0.52;;
21030;SDS011;61072;47.808;7.636;2023-08-06T13:34:38;1.55;;;0.45;;
21030;SDS011;61072;47.808;7.636;2023-08-06T13:37:04;0.57;;;0.50;;
21030;SDS011;61072;47.808;7.636;2023-08-06T13:39:31;1.05;;;0.50;;
21030;SDS011;61072;47.808;7.636;2023-08-06T13:41:58;0.50;;;0.40;;
21030;SDS011;61072;47.808;7.636;2023-08-06T13:44:25;1.95;;;0.60;;
21030;SDS011;61072;47.808;7.636;2023-08-06T13:46:51;2.15;;;0.75;;
21030;SDS011;61072;47.808;7.636;2023-08-06T13:49:19;0.38;;;0.38;;
21030;SDS011;61072;47.808;7.636;2023-08-06T13:51:45;1.15;;;0.50;;
21030;SDS011;61072;47.808;7.636;2023-08-06T13:54:12;0.40;;;0.30;;
21030;SDS011;61072;47.808;7.636;2023-08-06T13:56:39;0.68;;;0.38;;
21030;SDS011;61072;47.808;7.636;2023-08-06T13:59:05;1.15;;;0.50;;
21030;SDS011;61072;47.808;7.636;2023-08-06T14:01:32;0.93;;;0.63;;
21030;SDS011;61072;47.808;7.636;2023-08-06T14:04:16;1.10;;;0.57;;
21030;SDS011;61072;47.808;7.636;2023-08-06T14:06:43;0.98;;;0.40;;
21030;SDS011;61072;47.808;7.636;2023-08-06T14:09:10;1.42;;;0.65;;
21030;SDS011;61072;47.808;7.636;2023-08-06T14:11:40;1.10;;;0.60;;
21030;SDS011;61072;47.808;7.636;2023-08-06T14:14:07;1.83;;;1.10;;
21030;SDS011;61072;47.808;7.636;2023-08-06T14:16:34;1.20;;;0.80;;
21030;SDS011;61072;47.808;7.636;2023-08-06T14:19:01;1.67;;;0.70;;
21030;SDS011;61072;47.808;7.636;2023-08-06T14:21:29;1.65;;;0.68;;
21030;SDS011;61072;47.808;7.636;2023-08-06T14:23:56;1.08;;;0.70;;
21030;SDS011;61072;47.808;7.636;2023-08-06T14:26:22;1.15;;;0.60;;
21030;SDS011;61072;47.808;7.636;2023-08-06T14:28:49;0.85;;;0.70;;
21030;SDS011;61072;47.808;7.636;2023-08-06T14:31:20;1.75;;;0.75;;
21030;SDS011;61072;47.808;7.636;2023-08-06T14:33:47;2.08;;;0.70;;
21030;SDS011;61072;47.808;7.636;2023-08-06T14:36:14;2.30;;;0.70;;
21030;SDS011;61072;47.808;7.636;2023-08-06T14:38:41;5.00;;;0.90;;
21030;SDS011;61072;47.808;7.636;2023-08-06T14:41:23;1.60;;;1.00;;
21030;SDS011;61072;47.808;7.636;2023-08-06T14:43:50;1.63;;;0.88;;
21030;SDS011;61072;47.808;7.636;2023-08-06T14:46:18;1.38;;;0.60;;
21030;SDS011;61072;47.808;7.636;2023-08-06T14:48:44;1.17;;;0.80;;
21030;SDS011;61072;47.808;7.636;2023-08-06T14:51:11;1.20;;;0.73;;
21030;SDS011;61072;47.808;7.636;2023-08-06T14:53:38;2.50;;;1.20;;
21030;SDS011;61072;47.808;7.636;2023-08-06T14:56:06;1.25;;;0.95;;
21030;SDS011;61072;47.808;7.636;2023-08-06T14:58:33;1.45;;;0.90;;
21030;SDS011;61072;47.808;7.636;2023-08-06T15:00:59;1.25;;;0.60;;
21030;SDS011;61072;47.808;7.636;2023-08-06T15:03:26;1.23;;;0.77;;
21030;SDS011;61072;47.808;7.636;2023-08-06T15:05:54;2.30;;;1.00;;
21030;SDS011;61072;47.808;7.636;2023-08-06T15:08:21;2.08;;;0.70;;
21030;SDS011;61072;47.808;7.636;2023-08-06T15:10:51;2.22;;;0.90;;
21030;SDS011;61072;47.808;7.636;2023-08-06T15:13:19;1.70;;;0.80;;
21030;SDS011;61072;47.808;7.636;2023-08-06T15:15:46;2.40;;;0.90;;